Time;durP1;ratioP1;P1;durP2;ratioP2;P2;SDS_P1;SDS_P2;PMS_P1;PMS_P2;Temp;Humidity;BMP_temperature;BMP_pressure;BME280_temperature;BME280_humidity;BME280_pressure;Samples;Min_cycle;Max_cycle;Signal;HPM_P1;HPM_P2
2021/03/18 00:01:54;;;;;;;12.90;11.70;;;;;;;1.09;76.01;100794.69;10509109;28;20047;-68
2021/03/18 00:06:55;;;;;;;12.93;11.80;;;;;;;1.28;75.45;100789.00;10509987;28;20450;-68
2021/03/18 00:11:57;;;;;;;13.32;12.13;;;;;;;1.22;75.72;100787.19;10510578;28;20041;-67
2021/03/18 00:16:58;;;;;;;13.15;11.85;;;;;;;1.23;75.47;100788.91;10508991;28;20055;-67
2021/03/18 00:21:59;;;;;;;14.68;13.27;;;;;;;1.17;75.84;100798.31;10508777;28;20486;-67
2021/03/18 00:27:01;;;;;;;12.95;11.75;;;;;;;1.37;75.44;100789.16;10491699;28;20067;-67
2021/03/18 00:32:02;;;;;;;13.48;12.32;;;;;;;1.27;75.66;100792.44;10509958;28;20043;-68
2021/03/18 00:37:04;;;;;;;14.50;13.20;;;;;;;1.28;76.14;100789.00;10490543;28;20497;-68
2021/03/18 00:42:05;;;;;;;15.05;13.02;;;;;;;1.25;75.78;100776.88;10509972;28;20063;-67
2021/03/18 00:47:07;;;;;;;13.85;12.55;;;;;;;1.31;75.23;100780.44;10509159;28;20097;-68
2021/03/18 00:52:10;;;;;;;14.30;12.82;;;;;;;1.22;75.89;100774.22;10507556;28;20071;-67
2021/03/18 00:57:12;;;;;;;14.90;11.63;;;;;;;1.51;74.90;100764.38;10507751;28;20055;-67
2021/03/18 01:02:14;;;;;;;13.82;12.73;;;;;;;1.42;74.97;100765.97;10490224;28;20095;-67
2021/03/18 01:07:16;;;;;;;13.60;12.30;;;;;;;1.44;74.92;100774.63;10508437;28;20051;-68
2021/03/18 01:12:17;;;;;;;16.50;14.80;;;;;;;1.10;76.15;100778.31;10507703;28;20037;-67
2021/03/18 01:17:18;;;;;;;14.63;13.18;;;;;;;1.29;75.85;100761.41;10506465;28;20044;-66
2021/03/18 01:22:20;;;;;;;14.68;13.30;;;;;;;1.16;75.96;100765.50;10489995;28;20048;-66
2021/03/18 01:27:23;;;;;;;15.85;14.48;;;;;;;1.15;75.95;100766.31;10508898;28;20052;-66
2021/03/18 01:32:25;;;;;;;17.02;15.25;;;;;;;1.11;76.19;100762.81;10508041;28;20036;-67
2021/03/18 01:37:26;;;;;;;17.00;15.52;;;;;;;0.96;76.60;100760.81;10488530;28;20090;-68
2021/03/18 01:42:27;;;;;;;17.17;15.85;;;;;;;1.00;76.24;100757.44;10507745;28;20527;-68
2021/03/18 01:47:29;;;;;;;17.15;15.65;;;;;;;1.04;76.56;100754.91;10506542;28;20055;-67
2021/03/18 01:52:31;;;;;;;17.48;14.82;;;;;;;1.04;76.28;100754.91;10489448;28;20101;-67
2021/03/18 01:57:33;;;;;;;15.40;14.02;;;;;;;1.12;75.86;100754.22;10492389;28;20048;-67
2021/03/18 02:02:35;;;;;;;14.20;13.02;;;;;;;1.25;75.62;100753.56;10509357;28;20044;-66
2021/03/18 02:07:37;;;;;;;15.25;13.75;;;;;;;1.19;75.07;100742.22;10488080;28;20056;-66
2021/03/18 02:12:39;;;;;;;16.15;14.50;;;;;;;1.11;75.61;100749.88;10505102;28;20041;-67
2021/03/18 02:17:51;;;;;;;17.20;15.70;;;;;;;0.96;76.22;100745.28;10505543;28;20045;-67
2021/03/18 02:23:23;;;;;;;16.00;14.52;;;;;;;1.05;75.78;100743.69;10505838;28;20043;-68
2021/03/18 02:29:21;;;;;;;15.98;14.60;;;;;;;0.98;76.19;100745.31;10509541;28;20067;-68
2021/03/18 02:34:50;;;;;;;15.57;14.27;;;;;;;0.94;75.77;100741.81;10511113;28;20535;-67
2021/03/18 02:39:57;;;;;;;16.20;15.00;;;;;;;0.94;75.99;100735.75;10512746;28;20114;-66
2021/03/18 02:45:01;;;;;;;17.40;16.08;;;;;;;0.82;76.14;100726.03;10519499;22;20075;-63
2021/03/18 02:50:05;;;;;;;17.80;15.93;;;;;;;0.81;75.63;100721.72;10505001;28;20052;-62
2021/03/18 02:55:07;;;;;;;17.70;16.27;;;;;;;0.82;75.92;100727.75;10505261;28;20049;-63
2021/03/18 03:00:11;;;;;;;19.17;17.58;;;;;;;0.57;76.11;100735.03;10503750;28;20102;-62
2021/03/18 03:05:14;;;;;;;17.02;15.73;;;;;;;0.92;75.29;100734.84;10504379;28;20401;-63
2021/03/18 03:10:20;;;;;;;17.02;15.55;;;;;;;0.80;75.66;100739.78;10504577;28;20048;-63
2021/03/18 03:15:23;;;;;;;17.83;16.42;;;;;;;0.66;75.41;100744.69;10485826;28;20072;-61
2021/03/18 03:20:25;;;;;;;18.17;16.80;;;;;;;0.98;74.78;100743.59;10503736;28;20074;-63
2021/03/18 03:25:27;;;;;;;17.10;15.65;;;;;;;0.89;74.79;100756.38;10503584;28;20036;-63
2021/03/18 03:30:28;;;;;;;17.65;16.35;;;;;;;0.84;74.75;100754.53;10503760;28;20094;-62
2021/03/18 03:35:30;;;;;;;18.88;16.65;;;;;;;1.22;73.55;100745.75;10503252;28;20552;-63
2021/03/18 03:40:31;;;;;;;18.58;17.08;;;;;;;0.95;73.63;100746.13;10502423;28;20493;-61
2021/03/18 03:45:33;;;;;;;18.85;17.35;;;;;;;0.74;74.17;100753.47;10502764;28;20105;-63
2021/03/18 03:50:36;;;;;;;19.80;17.98;;;;;;;0.69;74.83;100750.81;10502238;28;20050;-63
2021/03/18 03:55:46;;;;;;;20.02;18.42;;;;;;;0.96;73.99;100753.03;10502042;28;20516;-63
2021/03/18 04:00:49;;;;;;;21.05;19.38;;;;;;;0.76;74.81;100754.41;10502330;28;20094;-64
2021/03/18 04:05:53;;;;;;;20.35;18.50;;;;;;;1.03;74.41;100750.59;10502177;28;20048;-61
2021/03/18 04:10:57;;;;;;;21.00;19.38;;;;;;;0.82;74.47;100749.31;10501693;28;20048;-61
2021/03/18 04:16:01;;;;;;;18.70;17.08;;;;;;;0.92;74.15;100750.38;10501804;28;20048;-60
2021/03/18 04:21:05;;;;;;;20.05;18.55;;;;;;;1.15;73.68;100751.69;10501590;28;20079;-64
2021/03/18 04:26:08;;;;;;;20.95;19.10;;;;;;;0.87;74.60;100754.59;10501887;28;20052;-62
2021/03/18 04:31:09;;;;;;;19.98;18.48;;;;;;;0.72;74.99;100757.78;10501083;28;20036;-62
2021/03/18 04:36:11;;;;;;;19.55;17.85;;;;;;;0.71;75.22;100751.72;10500308;28;20052;-61
2021/03/18 04:41:12;;;;;;;19.55;18.05;;;;;;;0.47;75.46;100759.84;10499823;28;20048;-62
2021/03/18 04:46:14;;;;;;;19.05;17.65;;;;;;;0.60;74.96;100757.50;10500045;28;20048;-62
2021/03/18 04:51:15;;;;;;;21.05;19.05;;;;;;;0.42;75.41;100758.00;10498558;28;20094;-62
2021/03/18 04:56:19;;;;;;;21.13;19.02;;;;;;;0.60;74.76;100749.75;10499835;28;20151;-59
2021/03/18 05:01:22;;;;;;;21.88;19.90;;;;;;;0.46;75.05;100754.66;10500154;28;20045;-62
2021/03/18 05:06:27;;;;;;;23.55;21.30;;;;;;;0.34;75.79;100764.72;10498786;28;20041;-62
2021/03/18 05:11:28;;;;;;;23.33;21.33;;;;;;;0.40;75.73;100758.00;10480429;28;20049;-61
2021/03/18 05:16:29;;;;;;;22.10;20.00;;;;;;;0.81;74.69;100755.34;10499804;28;20102;-62
2021/03/18 05:21:32;;;;;;;19.95;18.27;;;;;;;0.87;73.70;100755.47;10499381;28;20049;-62
2021/03/18 05:26:34;;;;;;;19.55;17.77;;;;;;;0.61;73.53;100761.84;10498162;28;20070;-61
2021/03/18 05:31:35;;;;;;;21.75;19.80;;;;;;;0.54;74.36;100762.56;10498416;28;20032;-61
2021/03/18 05:36:37;;;;;;;18.75;16.88;;;;;;;0.77;72.57;100765.63;10498736;28;20044;-64
2021/03/18 05:41:39;;;;;;;21.83;20.02;;;;;;;0.51;73.04;100768.53;10498808;28;20040;-61
2021/03/18 05:46:40;;;;;;;18.65;16.98;;;;;;;0.58;72.58;100773.03;10497980;28;20086;-62
2021/03/18 05:51:48;;;;;;;24.05;21.67;;;;;;;0.50;73.16;100761.63;10498011;28;20056;-61
2021/03/18 05:56:50;;;;;;;20.88;18.80;;;;;;;0.53;72.38;100764.25;10497971;28;20048;-62
2021/03/18 06:01:51;;;;;;;16.60;15.02;;;;;;;0.88;70.72;100767.53;10499275;28;20037;-63
2021/03/18 06:06:53;;;;;;;22.30;20.38;;;;;;;0.65;71.92;100766.25;10506420;28;20649;-62
2021/03/18 06:11:55;;;;;;;22.08;19.95;;;;;;;0.58;72.27;100765.25;10506362;28;20041;-62
2021/03/18 06:16:58;;;;;;;20.73;19.00;;;;;;;0.54;72.46;100771.22;10488225;28;20060;-61
2021/03/18 06:21:59;;;;;;;18.60;16.95;;;;;;;0.75;71.41;100776.81;10506188;28;20431;-61
2021/03/18 06:27:00;;;;;;;18.95;17.20;;;;;;;0.67;72.22;100769.75;10506152;28;20044;-62
2021/03/18 06:32:14;;;;;;;21.60;17.85;;;;;;;0.60;72.37;100767.88;10505821;28;20044;-63
2021/03/18 06:37:47;;;;;;;18.73;16.95;;;;;;;0.85;71.16;100772.69;10505978;28;20124;-63
2021/03/18 06:42:53;;;;;;;29.92;21.92;;;;;;;0.61;72.32;100773.06;10487631;28;20543;-61
2021/03/18 06:47:58;;;;;;;24.45;20.13;;;;;;;0.34;72.97;100772.50;10486713;28;20076;-61
2021/03/18 06:52:59;;;;;;;36.45;25.42;;;;;;;0.38;73.35;100766.53;10506190;28;20047;-62
2021/03/18 06:58:24;;;;;;;26.90;20.13;;;;;;;0.57;72.89;100768.66;10505152;28;20072;-62
2021/03/18 07:03:37;;;;;;;28.90;22.52;;;;;;;0.60;72.83;100768.72;10505114;28;20067;-61
2021/03/18 07:08:40;;;;;;;19.83;17.85;;;;;;;1.01;70.85;100769.53;10505064;28;20395;-62
2021/03/18 07:13:43;;;;;;;19.15;17.27;;;;;;;1.19;70.86;100758.63;10503051;28;20047;-61
2021/03/18 07:18:58;;;;;;;18.15;16.48;;;;;;;1.18;69.96;100763.78;10503937;28;20056;-62
2021/03/18 07:24:00;;;;;;;19.88;18.08;;;;;;;0.88;70.96;100762.38;10503976;28;20029;-62
2021/03/18 07:29:26;;;;;;;19.80;17.90;;;;;;;1.04;70.94;100765.25;10503683;28;20070;-62
2021/03/18 07:34:29;;;;;;;19.77;17.88;;;;;;;1.27;70.01;100757.06;10459061;28;20072;-62
2021/03/18 07:39:40;;;;;;;18.42;16.73;;;;;;;1.25;70.07;100752.72;10461578;28;20392;-62
2021/03/18 07:44:43;;;;;;;19.00;17.38;;;;;;;1.25;71.26;100757.91;10467703;28;20040;-62
2021/03/18 07:49:47;;;;;;;21.98;19.73;;;;;;;1.25;70.59;100756.16;10485419;28;20051;-62
2021/03/18 07:54:50;;;;;;;20.42;18.70;;;;;;;1.26;71.08;100752.72;10497129;28;20032;-62
2021/03/18 07:59:51;;;;;;;15.93;14.52;;;;;;;2.00;68.03;100747.00;10501954;28;20045;-62
2021/03/18 08:04:54;;;;;;;17.58;16.00;;;;;;;1.91;69.09;100746.00;10445251;28;20099;-62
2021/03/18 08:10:05;;;;;;;15.13;13.82;;;;;;;2.14;68.97;100738.53;10484389;28;20511;-62
2021/03/18 08:15:19;;;;;;;13.77;12.68;;;;;;;2.49;66.90;100734.69;10502016;28;20052;-62
2021/03/18 08:20:50;;;;;;;12.73;11.52;;;;;;;3.08;64.78;100728.41;10476762;28;20564;-63
2021/03/18 08:26:06;;;;;;;13.23;12.13;;;;;;;3.67;63.91;100715.03;10452104;28;20102;-63
2021/03/18 08:31:19;;;;;;;10.98;10.18;;;;;;;4.41;61.60;100713.72;10501218;28;20052;-63
2021/03/18 08:36:32;;;;;;;12.65;11.65;;;;;;;4.43;62.41;100709.41;10500811;28;20048;-63
2021/03/18 08:41:37;;;;;;;10.73;9.82;;;;;;;5.15;59.34;100701.75;10500090;28;20045;-62
2021/03/18 08:46:43;;;;;;;13.32;12.32;;;;;;;4.15;61.12;100697.09;10510441;22;20028;-66
2021/03/18 08:51:47;;;;;;;16.95;15.65;;;;;;;3.32;63.84;100706.06;10420878;28;20099;-66
2021/03/18 08:56:48;;;;;;;20.55;18.77;;;;;;;3.14;66.59;100710.25;10426312;28;20053;-67
2021/03/18 09:01:49;;;;;;;18.17;16.77;;;;;;;3.38;65.18;100701.81;10420610;28;20041;-66
2021/03/18 09:06:51;;;;;;;23.48;21.48;;;;;;;2.93;66.95;100710.94;10423281;28;20044;-66
2021/03/18 09:11:54;;;;;;;23.50;21.35;;;;;;;3.50;64.90;100699.31;10406148;28;20049;-66
2021/03/18 09:17:23;;;;;;;29.00;26.25;;;;;;;3.28;65.51;100702.63;10423116;28;20045;-66
2021/03/18 09:22:43;;;;;;;28.75;26.05;;;;;;;3.25;66.17;100699.97;10461091;28;20091;-65
2021/03/18 09:27:46;;;;;;;30.08;26.08;;;;;;;3.13;66.56;100700.72;10463986;28;20045;-67
2021/03/18 09:32:48;;;;;;;27.95;24.17;;;;;;;3.34;65.87;100700.06;10445795;28;20045;-66
2021/03/18 09:37:51;;;;;;;24.98;22.88;;;;;;;3.33;66.22;100697.44;10462964;28;20040;-65
2021/03/18 09:42:52;;;;;;;17.77;16.38;;;;;;;3.30;64.18;100690.50;10461374;28;20037;-66
2021/03/18 09:47:53;;;;;;;18.83;17.15;;;;;;;3.39;65.27;100684.50;10443779;28;20446;-65
2021/03/18 09:53:09;;;;;;;12.98;11.95;;;;;;;3.84;64.59;100689.13;10461463;28;20124;-66
2021/03/18 09:58:15;;;;;;;12.77;11.60;;;;;;;4.65;62.46;100683.41;10461192;28;20049;-66
2021/03/18 10:03:17;;;;;;;11.07;9.93;;;;;;;4.29;62.14;100685.94;10461126;28;20037;-65
2021/03/18 10:08:22;;;;;;;12.30;8.02;;;;;;;4.06;61.87;100679.72;10443937;28;20047;-65
2021/03/18 10:13:24;;;;;;;8.07;7.38;;;;;;;4.34;61.17;100670.31;10460805;28;20041;-66
2021/03/18 10:18:25;;;;;;;8.43;7.82;;;;;;;4.07;61.24;100667.56;10461003;28;20041;-65
2021/03/18 10:23:26;;;;;;;8.02;7.43;;;;;;;4.19;60.85;100658.09;10460186;28;20124;-66
2021/03/18 10:28:32;;;;;;;7.47;6.85;;;;;;;4.22;61.30;100665.94;10460397;28;20041;-66
2021/03/18 10:33:35;;;;;;;7.63;6.93;;;;;;;4.09;61.27;100655.47;10461246;28;20041;-65
2021/03/18 10:38:39;;;;;;;7.68;7.07;;;;;;;5.07;60.21;100649.63;10443102;28;20107;-67
2021/03/18 10:43:43;;;;;;;7.28;5.85;;;;;;;5.29;58.19;100644.41;10461225;28;20116;-66
2021/03/18 10:48:47;;;;;;;6.20;5.35;;;;;;;4.91;58.95;100634.84;10430039;28;20391;-66
2021/03/18 10:53:51;;;;;;;6.18;5.78;;;;;;;4.20;60.29;100644.22;10467864;28;20111;-67
2021/03/18 10:58:54;;;;;;;6.53;6.03;;;;;;;4.02;62.21;100645.00;10450150;28;20087;-67
2021/03/18 11:04:03;;;;;;;7.32;6.72;;;;;;;4.29;62.75;100639.06;10468498;28;20115;-66
2021/03/18 11:09:11;;;;;;;6.63;6.05;;;;;;;4.51;62.20;100637.38;10467306;28;20045;-65
2021/03/18 11:14:14;;;;;;;7.03;6.43;;;;;;;4.30;61.44;100638.22;10466861;28;20053;-66
2021/03/18 11:19:21;;;;;;;7.55;6.90;;;;;;;4.36;62.40;100634.75;10467142;28;20051;-65
2021/03/18 11:24:26;;;;;;;7.03;6.43;;;;;;;4.43;62.56;100625.25;10468322;28;20383;-67
2021/03/18 11:29:36;;;;;;;9.02;8.23;;;;;;;4.21;63.91;100621.69;10470378;28;20053;-65
2021/03/18 11:34:40;;;;;;;4.80;4.40;;;;;;;3.98;65.39;100616.38;10467793;28;20087;-66
2021/03/18 11:39:42;;;;;;;3.05;2.60;;;;;;;3.45;67.90;100606.56;10467191;28;20049;-66
2021/03/18 11:44:43;;;;;;;3.40;2.47;;;;;;;3.52;67.64;100597.94;10470310;28;20486;-67
2021/03/18 11:49:47;;;;;;;2.78;2.15;;;;;;;3.16;69.59;100598.59;10469657;28;20152;-67
2021/03/18 11:54:49;;;;;;;2.30;2.03;;;;;;;3.40;69.10;100595.28;10470660;28;20059;-68
2021/03/18 11:59:50;;;;;;;2.72;1.58;;;;;;;4.13;66.45;100568.75;10469250;28;20486;-65
2021/03/18 12:04:52;;;;;;;2.88;2.33;;;;;;;4.59;65.69;100561.03;10450806;28;20399;-67
2021/03/18 12:09:53;;;;;;;3.33;2.65;;;;;;;5.61;62.31;100549.63;10469585;28;20045;-66
2021/03/18 12:14:54;;;;;;;5.28;3.85;;;;;;;5.45;61.87;100536.66;10469888;28;20041;-66
2021/03/18 12:19:56;;;;;;;6.47;3.83;;;;;;;5.91;59.44;100523.41;10470745;28;20118;-66
2021/03/18 12:24:57;;;;;;;4.55;4.05;;;;;;;5.85;60.38;100514.75;10451705;28;20570;-67
2021/03/18 12:29:59;;;;;;;5.90;4.38;;;;;;;5.60;61.18;100498.34;10451688;28;20051;-66
2021/03/18 12:35:03;;;;;;;5.43;4.93;;;;;;;6.09;60.00;100485.06;10469997;28;20033;-67
2021/03/18 12:40:06;;;;;;;5.45;4.90;;;;;;;6.26;60.78;100484.09;10459978;28;20498;-67
2021/03/18 12:45:11;;;;;;;4.85;4.45;;;;;;;6.63;56.80;100455.06;10468385;28;20501;-66
2021/03/18 12:50:18;;;;;;;6.30;4.65;;;;;;;6.23;59.17;100449.31;10466954;28;20047;-67
2021/03/18 12:55:20;;;;;;;6.30;4.70;;;;;;;5.74;58.75;100450.44;10467576;28;20045;-67
2021/03/18 13:00:28;;;;;;;6.38;5.78;;;;;;;5.14;59.31;100449.00;10466910;28;20049;-67
2021/03/18 13:05:29;;;;;;;5.35;4.95;;;;;;;4.61;60.49;100437.81;10417476;28;20048;-67
2021/03/18 13:10:30;;;;;;;4.18;3.88;;;;;;;4.73;59.32;100442.09;10381726;28;20474;-66
2021/03/18 13:15:32;;;;;;;3.92;3.28;;;;;;;4.89;60.13;100432.53;10407288;28;20046;-68
2021/03/18 13:20:33;;;;;;;3.40;3.10;;;;;;;4.89;60.65;100422.13;10407094;28;20049;-67
2021/03/18 13:25:35;;;;;;;4.22;3.90;;;;;;;5.02;59.75;100414.25;10405827;28;20065;-67
2021/03/18 13:30:37;;;;;;;4.85;4.30;;;;;;;5.19;59.07;100411.59;10385801;28;20046;-67
2021/03/18 13:35:41;;;;;;;4.93;4.50;;;;;;;5.50;58.22;100403.66;10386027;28;20045;-68
2021/03/18 13:40:45;;;;;;;4.72;4.32;;;;;;;5.56;58.58;100391.44;10391704;28;20072;-66
2021/03/18 13:45:47;;;;;;;4.60;3.97;;;;;;;5.71;59.12;100384.38;10425238;28;20056;-68
2021/03/18 13:50:54;;;;;;;1.52;1.30;;;;;;;5.70;53.98;100393.09;10424835;28;20072;-69
2021/03/18 13:55:56;;;;;;;2.17;1.60;;;;;;;5.90;54.86;100375.56;10423961;28;20061;-67
2021/03/18 14:01:01;;;;;;;2.05;1.80;;;;;;;6.00;55.52;100359.00;10404268;28;20041;-68
2021/03/18 14:06:02;;;;;;;1.63;1.10;;;;;;;6.26;55.11;100355.31;10404627;28;20042;-66
2021/03/18 14:11:04;;;;;;;2.45;1.10;;;;;;;6.72;50.49;100336.53;10418705;28;20518;-66
2021/03/18 14:16:06;;;;;;;1.63;1.20;;;;;;;6.56;50.97;100339.34;10418842;28;20385;-66
2021/03/18 14:21:08;;;;;;;2.53;1.50;;;;;;;5.82;55.61;100349.53;10420152;28;20046;-66
2021/03/18 14:26:09;;;;;;;4.07;2.50;;;;;;;5.57;58.91;100348.81;10426381;28;20384;-66
2021/03/18 14:31:11;;;;;;;3.50;2.70;;;;;;;5.15;58.69;100341.25;10410863;28;20076;-67
2021/03/18 14:36:12;;;;;;;4.80;4.22;;;;;;;5.05;61.55;100351.72;10392715;28;20049;-66
2021/03/18 14:41:14;;;;;;;5.78;3.70;;;;;;;4.92;62.35;100349.19;10426913;28;20053;-67
2021/03/18 14:46:16;;;;;;;4.00;3.63;;;;;;;5.00;62.34;100345.69;10427570;28;20468;-67
2021/03/18 14:51:18;;;;;;;4.65;4.25;;;;;;;4.52;63.27;100352.78;10407512;28;20045;-67
2021/03/18 14:56:20;;;;;;;5.40;4.90;;;;;;;3.84;65.75;100369.28;10425559;28;20037;-67
2021/03/18 15:01:41;;;;;;;6.13;5.53;;;;;;;3.19;69.22;100362.22;10407204;28;20049;-67
2021/03/18 15:06:43;;;;;;;5.97;5.40;;;;;;;3.14;69.83;100353.50;10425064;28;20051;-67
2021/03/18 15:11:45;;;;;;;6.10;5.60;;;;;;;3.44;69.60;100360.53;10407734;28;20076;-66
2021/03/18 15:16:47;;;;;;;8.65;5.18;;;;;;;3.37;68.83;100351.00;10425296;28;20101;-66
2021/03/18 15:21:48;;;;;;;5.47;4.97;;;;;;;3.58;68.78;100345.84;10424508;28;20095;-67
2021/03/18 15:26:50;;;;;;;5.55;5.00;;;;;;;3.83;67.70;100331.13;10424319;28;20046;-66
2021/03/18 15:31:51;;;;;;;6.05;4.82;;;;;;;3.76;66.95;100326.78;10424059;28;20046;-67
2021/03/18 15:36:53;;;;;;;5.65;4.88;;;;;;;3.82;67.04;100316.41;10422155;28;20044;-67
2021/03/18 15:41:54;;;;;;;4.47;3.85;;;;;;;4.09;66.02;100323.31;10405246;28;20048;-67
2021/03/18 15:46:56;;;;;;;4.45;4.00;;;;;;;3.89;66.69;100315.53;10422421;28;20037;-68
2021/03/18 15:51:57;;;;;;;6.07;5.57;;;;;;;4.03;66.11;100311.19;10422711;28;20076;-67
2021/03/18 15:56:59;;;;;;;4.95;4.55;;;;;;;4.02;65.55;100304.25;10422837;28;20101;-66
2021/03/18 16:02:00;;;;;;;5.63;3.97;;;;;;;3.86;65.86;100302.53;10423503;28;20038;-67
2021/03/18 16:07:21;;;;;;;5.63;4.95;;;;;;;3.78;66.80;100301.66;10423455;28;20045;-66
2021/03/18 16:12:23;;;;;;;5.43;4.93;;;;;;;3.88;66.76;100299.94;10423301;28;20037;-66
2021/03/18 16:17:25;;;;;;;5.18;4.68;;;;;;;3.87;67.00;100300.81;10421876;28;20073;-66
2021/03/18 16:22:28;;;;;;;5.88;5.38;;;;;;;4.07;66.88;100296.44;10405158;28;20068;-67
2021/03/18 16:27:29;;;;;;;4.65;4.25;;;;;;;3.89;66.57;100291.25;10404995;28;20053;-68
2021/03/18 16:32:31;;;;;;;5.13;4.72;;;;;;;3.69;67.32;100283.47;10423053;28;20045;-67
2021/03/18 16:37:38;;;;;;;4.93;4.28;;;;;;;3.67;67.26;100286.06;10409630;28;20041;-67
2021/03/18 16:42:41;;;;;;;4.60;4.20;;;;;;;3.53;67.19;100291.25;10390718;28;20451;-67
2021/03/18 16:47:42;;;;;;;4.50;3.95;;;;;;;3.58;64.67;100277.38;10382883;28;20053;-66
2021/03/18 16:52:45;;;;;;;4.50;4.10;;;;;;;3.28;66.77;100273.91;10392423;28;20037;-67
2021/03/18 16:57:46;;;;;;;4.55;4.18;;;;;;;3.30;67.10;100279.97;10421488;28;20488;-66
2021/03/18 17:02:47;;;;;;;4.15;3.83;;;;;;;3.44;66.41;100270.44;10396952;28;20050;-67
2021/03/18 17:07:50;;;;;;;3.97;3.58;;;;;;;3.25;66.90;100268.69;10415320;28;20171;-66
2021/03/18 17:12:51;;;;;;;3.53;3.17;;;;;;;3.17;66.44;100270.41;10418722;28;20047;-67
2021/03/18 17:17:53;;;;;;;3.72;3.42;;;;;;;3.22;66.59;100268.69;10415717;28;20057;-68
2021/03/18 17:22:55;;;;;;;3.08;2.78;;;;;;;3.21;65.21;100270.41;10412181;28;20491;-67
2021/03/18 17:27:56;;;;;;;4.25;3.95;;;;;;;2.68;67.71;100263.34;10410492;28;20076;-67
2021/03/18 17:32:58;;;;;;;4.57;4.18;;;;;;;2.63;68.72;100265.06;10385116;28;20080;-67
2021/03/18 17:37:59;;;;;;;7.95;4.15;;;;;;;2.57;68.77;100272.84;10421176;28;20034;-66
2021/03/18 17:43:00;;;;;;;5.72;5.22;;;;;;;2.44;69.75;100276.22;10404727;28;20506;-65
2021/03/18 17:48:12;;;;;;;5.07;4.68;;;;;;;2.23;71.25;100276.97;10424065;28;20061;-66
2021/03/18 17:53:16;;;;;;;4.80;4.40;;;;;;;2.33;71.04;100278.75;10421262;28;20041;-67
2021/03/18 17:58:18;;;;;;;5.85;4.80;;;;;;;2.05;71.69;100277.72;10387355;28;20069;-65
2021/03/18 18:03:19;;;;;;;4.90;4.50;;;;;;;2.06;71.76;100281.19;10379782;28;20492;-66
2021/03/18 18:08:21;;;;;;;6.30;5.70;;;;;;;1.71;72.37;100284.38;10379196;28;20046;-65
2021/03/18 18:13:23;;;;;;;5.32;4.90;;;;;;;1.61;72.10;100270.47;10379634;28;20496;-66
2021/03/18 18:18:35;;;;;;;6.55;5.88;;;;;;;1.63;72.05;100276.53;10380007;28;20077;-67
2021/03/18 18:23:36;;;;;;;6.88;6.07;;;;;;;1.43;72.76;100273.78;10361801;28;20042;-66
2021/03/18 18:28:38;;;;;;;9.15;8.15;;;;;;;1.58;72.41;100267.00;10364283;28;20080;-65
2021/03/18 18:33:40;;;;;;;7.72;7.22;;;;;;;1.66;72.57;100267.94;10403881;28;20041;-65
2021/03/18 18:38:41;;;;;;;8.18;7.50;;;;;;;1.44;73.43;100254.78;10403457;28;20052;-66
2021/03/18 18:43:43;;;;;;;9.18;8.45;;;;;;;1.59;73.84;100260.94;10420416;28;20480;-65
2021/03/18 18:48:54;;;;;;;9.95;8.80;;;;;;;1.56;73.99;100259.22;10417675;28;20047;-65
2021/03/18 18:53:56;;;;;;;9.30;8.50;;;;;;;1.47;74.09;100262.59;10419360;28;20079;-66
2021/03/18 18:58:57;;;;;;;10.48;9.68;;;;;;;1.43;74.07;100260.81;10420502;28;20072;-67
2021/03/18 19:03:59;;;;;;;10.30;9.50;;;;;;;1.56;74.34;100255.75;10403733;28;20037;-68
2021/03/18 19:09:05;;;;;;;11.10;9.55;;;;;;;1.96;73.34;100255.19;10422559;28;20095;-67
2021/03/18 19:14:07;;;;;;;10.63;9.73;;;;;;;1.67;74.48;100256.69;10428630;28;20041;-67
2021/03/18 19:19:19;;;;;;;12.82;11.82;;;;;;;1.49;74.70;100249.66;10428716;28;20033;-67
2021/03/18 19:24:21;;;;;;;12.80;11.80;;;;;;;1.59;74.83;100248.00;10427811;28;20049;-66
2021/03/18 19:29:22;;;;;;;11.98;10.98;;;;;;;1.66;74.54;100250.66;10410000;28;20052;-66
2021/03/18 19:34:23;;;;;;;13.63;12.48;;;;;;;1.55;74.47;100249.72;10426747;28;20049;-67
2021/03/18 19:39:27;;;;;;;14.85;13.30;;;;;;;1.70;73.84;100247.22;10426397;28;20045;-66
2021/03/18 19:44:28;;;;;;;12.98;11.85;;;;;;;1.70;73.32;100234.28;10426357;28;20092;-65
2021/03/18 19:49:37;;;;;;;13.68;12.38;;;;;;;1.67;73.40;100233.38;10426882;28;20046;-66
2021/03/18 19:54:39;;;;;;;13.98;12.88;;;;;;;1.58;74.29;100233.31;10426477;28;20392;-66
2021/03/18 19:59:40;;;;;;;12.77;11.77;;;;;;;1.70;73.41;100241.19;10426650;28;20449;-67
2021/03/18 20:04:42;;;;;;;15.85;13.20;;;;;;;1.71;74.28;100235.13;10411260;28;20041;-66
2021/03/18 20:09:43;;;;;;;13.07;12.07;;;;;;;1.74;74.05;100232.56;10427027;28;20076;-67
2021/03/18 20:14:44;;;;;;;14.82;13.13;;;;;;;1.95;73.46;100232.72;10426984;28;20049;-66
2021/03/18 20:20:00;;;;;;;14.65;13.55;;;;;;;1.92;73.48;100231.84;10426649;28;20072;-66
2021/03/18 20:25:04;;;;;;;16.50;15.07;;;;;;;1.96;73.66;100231.88;10408936;28;20037;-68
2021/03/18 20:30:09;;;;;;;16.42;15.02;;;;;;;2.02;73.62;100224.09;10426492;28;20046;-67
2021/03/18 20:35:10;;;;;;;15.50;14.20;;;;;;;2.05;73.47;100225.88;10427288;28;20045;-67
2021/03/18 20:40:17;;;;;;;16.05;14.68;;;;;;;1.95;73.16;100218.91;10426083;28;20125;-68
2021/03/18 20:45:19;;;;;;;15.80;14.48;;;;;;;1.90;73.35;100224.03;10409385;28;20064;-66
2021/03/18 20:50:26;;;;;;;15.43;14.23;;;;;;;1.91;73.08;100211.97;10428415;28;20124;-68
2021/03/18 20:55:32;;;;;;;15.30;14.20;;;;;;;1.69;73.76;100213.53;10425989;28;20491;-66
2021/03/18 21:00:36;;;;;;;15.02;13.60;;;;;;;1.40;74.29;100214.16;10425083;28;20075;-67
2021/03/18 21:05:42;;;;;;;;;;;;;;;1.45;74.68;100219.38;10427172;28;20061;-66
2021/03/18 21:10:43;;;;;;;13.82;12.80;;;;;;;1.37;74.57;100210.69;10409305;28;19921;-66
2021/03/18 21:15:45;;;;;;;15.63;12.82;;;;;;;1.45;74.62;100216.78;10429936;28;20037;-67
2021/03/18 21:20:48;;;;;;;15.73;13.40;;;;;;;1.17;75.23;100211.38;10416801;28;20045;-68
2021/03/18 21:25:51;;;;;;;10.20;9.27;;;;;;;1.47;74.44;100209.91;10429719;28;20087;-67
2021/03/18 21:30:55;;;;;;;11.68;10.73;;;;;;;1.20;74.88;100211.44;10409808;28;20499;-66
2021/03/18 21:35:56;;;;;;;11.52;10.55;;;;;;;1.10;75.24;100208.72;10392564;28;20053;-69
2021/03/18 21:40:58;;;;;;;13.25;12.10;;;;;;;1.10;75.52;100206.13;10409956;28;20118;-66
2021/03/18 21:45:59;;;;;;;13.65;12.55;;;;;;;1.03;75.91;100207.81;10391761;28;20065;-68
2021/03/18 21:51:08;;;;;;;11.73;10.73;;;;;;;1.15;75.58;100212.22;10392227;28;20510;-67
2021/03/18 21:56:10;;;;;;;11.63;10.73;;;;;;;1.09;75.47;100204.41;10407403;28;20052;-67
2021/03/18 22:01:12;;;;;;;12.43;11.43;;;;;;;1.01;75.35;100210.38;10391956;28;20053;-67
2021/03/18 22:06:13;;;;;;;12.55;11.50;;;;;;;1.07;75.51;100203.53;10406845;28;20056;-66
2021/03/18 22:11:15;;;;;;;11.80;10.77;;;;;;;1.13;75.50;100206.16;10424084;28;20075;-68
2021/03/18 22:16:16;;;;;;;11.85;10.85;;;;;;;1.20;75.31;100193.31;10406531;28;20065;-68
2021/03/18 22:21:29;;;;;;;13.05;11.73;;;;;;;0.92;76.03;100192.16;10424601;28;20049;-67
2021/03/18 22:26:30;;;;;;;12.55;11.52;;;;;;;1.29;75.24;100183.88;10405201;28;20091;-68
2021/03/18 22:31:32;;;;;;;12.70;11.80;;;;;;;1.13;75.33;100191.50;10406551;28;20037;-67
2021/03/18 22:36:34;;;;;;;12.07;11.07;;;;;;;1.20;75.25;100188.13;10423350;28;20546;-67
2021/03/18 22:41:37;;;;;;;11.75;10.85;;;;;;;1.14;75.23;100190.63;10406474;28;20049;-68
2021/03/18 22:46:38;;;;;;;12.35;11.32;;;;;;;1.10;75.72;100190.59;10427740;28;20049;-67
2021/03/18 22:51:51;;;;;;;12.95;11.88;;;;;;;1.26;74.95;100190.75;10412430;28;20053;-67
2021/03/18 22:56:52;;;;;;;12.18;11.18;;;;;;;1.28;75.07;100188.16;10412442;28;20053;-67
2021/03/18 23:01:55;;;;;;;11.73;10.82;;;;;;;1.15;75.38;100188.91;10411425;28;20053;-67
2021/03/18 23:06:57;;;;;;;12.48;11.48;;;;;;;1.08;75.46;100177.66;10412579;28;20042;-68
2021/03/18 23:11:58;;;;;;;13.10;12.10;;;;;;;1.16;75.27;100186.34;10429875;28;20403;-67
2021/03/18 23:22:19;;;;;;;12.47;11.57;;;;;;;1.07;75.90;100177.66;10413459;28;20136;-67